createdAt,value
2019-02-04T00:04:00.664Z,12.27
2019-02-04T00:09:09.131Z,13.77
2019-02-04T00:14:15.265Z,12.90
2019-02-04T00:19:21.155Z,13.47
2019-02-04T00:24:27.097Z,13.80
2019-02-04T00:29:33.274Z,13.93
2019-02-04T00:34:39.266Z,13.33
2019-02-04T00:39:45.252Z,13.77
2019-02-04T00:44:51.316Z,13.70
2019-02-04T00:49:57.789Z,13.30
2019-02-04T00:55:03.865Z,13.27
2019-02-04T01:00:30.258Z,13.57
2019-02-04T01:05:36.615Z,12.97
2019-02-04T01:10:42.693Z,12.43
2019-02-04T01:15:48.788Z,12.03
2019-02-04T01:20:55.223Z,12.00
2019-02-04T01:26:01.126Z,11.87
2019-02-04T01:31:07.173Z,11.30
2019-02-04T01:36:13.371Z,11.73
2019-02-04T01:41:19.528Z,12.37
2019-02-04T01:46:25.620Z,11.37
2019-02-04T01:51:31.749Z,11.80
2019-02-04T01:56:37.867Z,11.97
2019-02-04T02:01:43.937Z,12.30
2019-02-04T02:06:49.999Z,9.97
2019-02-04T02:11:56.242Z,10.10
2019-02-04T02:17:02.690Z,10.80
2019-02-04T02:22:08.753Z,9.93
2019-02-04T02:27:15.226Z,9.57
2019-02-04T02:32:21.307Z,9.33
2019-02-04T02:37:27.289Z,9.60
2019-02-04T02:42:33.183Z,9.90
2019-02-04T02:47:39.155Z,10.20
2019-02-04T02:52:45.236Z,9.27
2019-02-04T02:57:51.365Z,9.53
2019-02-04T03:02:57.664Z,10.57
2019-02-04T03:08:03.708Z,9.70
2019-02-04T03:13:10.112Z,10.60
2019-02-04T03:18:16.278Z,11.70
2019-02-04T03:23:22.271Z,11.67
2019-02-04T03:28:28.342Z,11.00
2019-02-04T03:33:34.393Z,9.70
2019-02-04T03:38:40.466Z,10.80
2019-02-04T03:43:46.566Z,9.47
2019-02-04T03:48:52.688Z,9.83
2019-02-04T03:53:58.692Z,12.23
2019-02-04T03:59:05.283Z,11.43
2019-02-04T04:04:11.270Z,12.03
2019-02-04T04:09:17.254Z,15.60
2019-02-04T04:14:23.220Z,13.60
2019-02-04T04:19:29.743Z,13.47
2019-02-04T04:24:35.781Z,16.00
2019-02-04T04:29:41.856Z,15.10
2019-02-04T04:34:47.945Z,15.67
2019-02-04T04:39:54.012Z,15.67
2019-02-04T04:45:00.112Z,16.27
2019-02-04T04:50:08.373Z,15.90
2019-02-04T04:55:16.860Z,15.37
2019-02-04T05:00:25.881Z,14.93
2019-02-04T05:05:32.040Z,14.67
2019-02-04T05:10:38.116Z,15.50
2019-02-04T05:15:44.119Z,13.63
2019-02-04T05:20:50.090Z,12.70
2019-02-04T05:25:57.986Z,12.93
2019-02-04T05:31:04.112Z,12.77
2019-02-04T05:36:10.001Z,12.87
2019-02-04T05:46:45.216Z,11.80
2019-02-04T05:51:51.404Z,15.57
2019-02-04T05:56:57.383Z,11.50
2019-02-04T06:02:03.384Z,12.07
2019-02-04T06:07:09.925Z,11.50
2019-02-04T06:12:16.004Z,11.53
2019-02-04T06:17:22.101Z,10.27
2019-02-04T06:22:28.989Z,11.17
2019-02-04T06:27:35.089Z,16.93
2019-02-04T06:32:41.229Z,9.77
2019-02-04T06:37:47.406Z,9.17
2019-02-04T06:42:53.441Z,9.03
2019-02-04T06:47:59.545Z,9.27
2019-02-04T06:53:05.526Z,9.03
2019-02-04T06:58:11.552Z,9.30
2019-02-04T07:03:17.992Z,8.87
2019-02-04T07:08:23.956Z,9.40
2019-02-04T07:13:29.953Z,8.87
2019-02-04T07:18:36.908Z,9.13
2019-02-04T07:23:43.030Z,9.00
2019-02-04T07:28:49.153Z,9.63
2019-02-04T07:33:55.465Z,8.90
2019-02-04T07:39:01.539Z,8.63
2019-02-04T07:44:08.331Z,9.47
2019-02-04T07:49:14.625Z,8.10
2019-02-04T07:54:20.766Z,8.63
2019-02-04T07:59:27.098Z,9.60
2019-02-04T08:04:33.127Z,9.87
2019-02-04T08:09:39.196Z,10.23
2019-02-04T08:14:45.451Z,9.37
2019-02-04T08:19:51.600Z,9.17
2019-02-04T08:24:58.653Z,8.93
2019-02-04T08:30:06.158Z,8.53
2019-02-04T08:35:12.454Z,8.80
2019-02-04T08:40:18.641Z,8.37
2019-02-04T08:45:24.791Z,9.03
2019-02-04T08:50:30.998Z,8.60
2019-02-04T08:55:37.242Z,9.67
2019-02-04T09:00:43.556Z,8.60
2019-02-04T09:05:49.586Z,9.10
2019-02-04T09:10:55.992Z,9.30
2019-02-04T09:16:02.085Z,7.80
2019-02-04T09:21:08.062Z,6.87
2019-02-04T09:26:14.310Z,6.87
2019-02-04T09:31:20.300Z,7.80
2019-02-04T09:36:26.469Z,7.97
2019-02-04T09:41:32.621Z,13.60
2019-02-04T09:46:38.641Z,10.10
2019-02-04T09:51:44.768Z,8.37
2019-02-04T09:56:50.793Z,9.80
2019-02-04T10:01:57.035Z,8.93
2019-02-04T10:07:03.226Z,10.27
2019-02-04T10:12:09.193Z,9.87
2019-02-04T10:17:15.191Z,8.97
2019-02-04T10:22:21.191Z,9.30
2019-02-04T10:27:27.470Z,10.03
2019-02-04T10:32:33.552Z,11.30
2019-02-04T10:37:39.910Z,8.97
2019-02-04T10:42:46.415Z,10.30
2019-02-04T10:47:52.483Z,10.33
2019-02-04T10:52:58.428Z,9.13
2019-02-04T10:58:05.300Z,8.90
2019-02-04T11:03:11.318Z,7.80
2019-02-04T11:08:17.288Z,8.70
2019-02-04T11:13:23.233Z,7.87
2019-02-04T11:18:29.270Z,7.63
2019-02-04T11:23:36.186Z,7.73
2019-02-04T11:28:42.238Z,8.67
2019-02-04T11:33:48.232Z,8.70
2019-02-04T11:38:54.439Z,9.00
2019-02-04T11:44:00.365Z,8.33
2019-02-04T11:49:06.452Z,7.70
2019-02-04T11:54:12.537Z,9.10
2019-02-04T11:59:18.491Z,8.00
2019-02-04T12:04:24.673Z,7.60
2019-02-04T12:09:30.841Z,8.50
2019-02-04T12:14:36.937Z,7.30
2019-02-04T12:19:42.910Z,7.20
2019-02-04T12:24:49.204Z,6.57
2019-02-04T12:29:55.150Z,6.93
2019-02-04T12:35:01.212Z,19.43
2019-02-04T12:40:07.750Z,7.50
2019-02-04T12:45:17.658Z,18.10
2019-02-04T12:50:23.895Z,8.27
2019-02-04T12:55:30.626Z,7.50
2019-02-04T13:00:36.644Z,6.37
2019-02-04T13:05:45.287Z,6.30
2019-02-04T13:10:51.254Z,12.20
2019-02-04T13:15:57.102Z,5.67
2019-02-04T13:21:03.319Z,5.60
2019-02-04T13:26:10.185Z,5.37
2019-02-04T13:31:16.297Z,4.50
2019-02-04T13:36:22.522Z,4.60
2019-02-04T13:41:28.596Z,4.50
2019-02-04T13:46:34.678Z,4.97
2019-02-04T13:51:40.690Z,4.40
2019-02-04T13:56:46.624Z,4.40
2019-02-04T14:01:52.590Z,3.70
2019-02-04T14:06:58.882Z,4.10
2019-02-04T14:12:05.029Z,4.37
2019-02-04T14:17:11.731Z,6.00
2019-02-04T14:22:17.909Z,4.73
2019-02-04T14:27:24.087Z,6.53
2019-02-04T14:32:30.153Z,4.20
2019-02-04T14:37:36.957Z,4.10
2019-02-04T14:42:43.248Z,5.37
2019-02-04T14:48:12.045Z,4.40
2019-02-04T14:53:36.036Z,4.97
2019-02-04T14:59:24.838Z,7.97
2019-02-04T15:05:11.903Z,6.70
2019-02-04T15:10:30.515Z,5.50
2019-02-04T15:15:57.605Z,4.17
2019-02-04T15:21:46.250Z,4.37
2019-02-04T15:27:21.856Z,4.10
2019-02-04T15:33:15.228Z,3.53
2019-02-04T15:38:51.628Z,3.77
2019-02-04T15:44:30.342Z,4.60
2019-02-04T15:50:22.902Z,4.47
2019-02-04T15:55:29.138Z,3.80
2019-02-04T16:00:35.093Z,4.80
2019-02-04T16:05:41.504Z,6.00
2019-02-04T16:10:47.513Z,5.67
2019-02-04T16:15:53.488Z,5.17
2019-02-04T16:20:59.602Z,11.77
2019-02-04T16:26:05.711Z,9.77
2019-02-04T16:31:11.690Z,7.40
2019-02-04T16:36:17.791Z,7.43
2019-02-04T16:41:23.756Z,7.30
2019-02-04T16:46:29.823Z,11.13
2019-02-04T16:51:36.202Z,9.30
2019-02-04T16:56:42.368Z,9.17
2019-02-04T17:01:48.544Z,8.07
2019-02-04T17:06:54.544Z,7.83
2019-02-04T17:12:00.597Z,8.83
2019-02-04T17:17:06.873Z,8.80
2019-02-04T17:22:13.037Z,9.70
2019-02-04T17:27:19.048Z,9.47
2019-02-04T17:32:25.144Z,9.77
2019-02-04T17:37:31.513Z,8.23
2019-02-04T17:42:37.655Z,8.73
2019-02-04T17:47:44.285Z,10.40
2019-02-04T17:52:50.241Z,9.73
2019-02-04T17:57:56.514Z,11.47
2019-02-04T18:03:02.837Z,10.77
2019-02-04T18:08:09.268Z,11.77
2019-02-04T18:13:15.359Z,11.43
2019-02-04T18:18:21.204Z,11.70
2019-02-04T18:23:27.812Z,10.80
2019-02-04T18:28:33.881Z,10.17
2019-02-04T18:33:40.067Z,11.57
2019-02-04T18:38:46.257Z,12.83
2019-02-04T18:43:52.414Z,12.50
2019-02-04T18:48:58.547Z,10.53
2019-02-04T18:54:04.757Z,12.67
2019-02-04T18:59:10.759Z,12.13
2019-02-04T19:10:16.776Z,10.27
2019-02-04T19:15:24.072Z,9.53
2019-02-04T19:20:30.241Z,9.90
2019-02-04T19:25:36.331Z,10.30
2019-02-04T19:30:48.337Z,9.57
2019-02-04T19:35:55.888Z,10.57
2019-02-04T19:41:02.127Z,10.70
2019-02-04T19:46:09.389Z,10.53
2019-02-04T19:51:15.582Z,10.10
2019-02-04T19:56:22.884Z,10.47
2019-02-04T20:01:28.871Z,14.67
2019-02-04T20:06:35.292Z,12.50
2019-02-04T20:11:41.511Z,11.47
2019-02-04T20:16:47.611Z,14.47
2019-02-04T20:21:53.665Z,8.50
2019-02-04T20:26:59.896Z,10.23
2019-02-04T20:32:06.314Z,11.10
2019-02-04T20:37:12.304Z,9.90
2019-02-04T20:42:18.447Z,9.93
2019-02-04T20:47:24.779Z,8.00
2019-02-04T20:52:31.019Z,7.93
2019-02-04T20:57:37.006Z,7.87
2019-02-04T21:02:43.090Z,7.93
2019-02-04T21:07:49.255Z,7.60
2019-02-04T21:12:55.472Z,7.67
2019-02-04T21:18:01.509Z,7.83
2019-02-04T21:23:07.670Z,6.17
2019-02-04T21:28:13.950Z,6.93
2019-02-04T21:33:20.057Z,7.43
2019-02-04T21:38:26.008Z,6.77
2019-02-04T21:43:32.222Z,6.30
2019-02-04T21:48:38.230Z,6.60
2019-02-04T21:53:44.334Z,6.40
2019-02-04T21:58:50.431Z,6.20
2019-02-04T22:03:56.505Z,6.77
2019-02-04T22:09:02.455Z,6.80
2019-02-04T22:14:10.161Z,7.03
2019-02-04T22:19:16.253Z,6.87
2019-02-04T22:24:22.138Z,6.50
2019-02-04T22:29:30.851Z,7.47
2019-02-04T22:34:35.886Z,8.20
2019-02-04T22:39:42.820Z,8.67
2019-02-04T22:44:49.002Z,8.27
2019-02-04T22:49:55.150Z,7.77
2019-02-04T22:55:01.112Z,8.33
2019-02-04T23:00:22.098Z,6.60
2019-02-04T23:05:28.013Z,6.73
2019-02-04T23:10:34.012Z,5.50
2019-02-04T23:15:40.085Z,5.17
2019-02-04T23:20:46.571Z,5.60
2019-02-04T23:25:52.626Z,5.83
2019-02-04T23:30:58.624Z,5.67
2019-02-04T23:36:05.182Z,4.03
2019-02-04T23:41:11.076Z,3.63
2019-02-04T23:46:17.146Z,3.90
2019-02-04T23:51:22.988Z,3.87
2019-02-04T23:56:29.084Z,3.50
